Latest Weather Observations for Cape Willoughby

IDS60801

Issued at 3:31 pm CST Saturday 4 July 2020 (issued every 10 minutes, with the page automatically refreshed every 10 minutes)

About weather observations | Map of weather stations | Latest weather observations for SA | Other Formats
Station Details ID: 022803 Name: CAPE WILLOUGHBY Lat: -35.84 Lon: 138.13 Height: 55.0 m
Data from the previous 72 hours. | See also: Recent months at Cape Willoughby
Date/Time
CST
Temp
°C
App
Temp
°C
Dew
Point
°C
Rel
Hum
%
Delta-T
°C
Wind Press
QNH
hPa
Press
MSL
hPa
Rain since
9am
mm
Dir  Spd
km/h
Gust
km/h
Spd
kts
Gust
kts
04/03:30pm 13.2 7.6 10.0 81 1.6 SW 30 37 16 20 1029.9 1029.9 0.2
04/03:00pm 13.7 8.3 9.6 76 2.1 SW 28 33 15 18 1029.9 1029.9 0.2
04/02:30pm 13.8 8.4 9.6 76 2.1 SW 28 35 15 19 1029.8 1029.8 0.2
04/02:00pm 13.8 8.4 9.5 75 2.2 SW 28 33 15 18 1029.7 1029.7 0.2
04/01:30pm 13.6 8.2 9.5 76 2.1 SW 28 33 15 18 1030.0 1030.0 0.2
04/01:00pm 13.9 8.9 9.7 76 2.2 SW 26 33 14 18 1030.2 1030.3 0.2
04/12:30pm 14.2 9.3 10.0 76 2.2 SW 26 35 14 19 1030.4 1030.5 0.2
04/12:00pm 14.6 9.6 10.8 78 2.0 SW 28 33 15 18 1030.7 1030.8 0.2
04/11:30am 14.1 8.5 10.1 77 2.1 SW 30 37 16 20 1031.0 1031.1 0.2
04/11:00am 14.0 8.8 10.2 78 2.0 SW 28 35 15 19 1031.2 1031.3 0.2
04/10:30am 13.9 8.4 10.5 80 1.8 SW 30 37 16 20 1031.2 1031.3 0.2
04/10:00am 13.7 7.6 10.5 81 1.7 SW 33 41 18 22 1030.8 1030.9 0.2
04/09:30am 13.1 6.9 10.1 82 1.5 SW 33 39 18 21 1030.4 1030.5 0.2
04/09:08am 12.3 8.3 10.5 89 0.9 WSW 22 43 12 23 1030.3 1030.4 0.2
04/09:00am 11.7 8.5 10.1 90 0.8 W 17 22 9 12 1030.4 1030.5 1.0
04/08:30am 10.9 7.6 9.5 91 0.7 W 17 26 9 14 1030.2 1030.3 1.0
04/08:00am 10.6 6.6 9.0 90 0.8 W 20 28 11 15 1030.1 1030.2 1.0
04/07:30am 10.3 6.4 8.7 90 0.8 WNW 19 26 10 14 1030.1 1030.2 0.8
04/07:00am 10.3 6.7 8.4 88 0.9 WNW 17 24 9 13 1030.0 1030.0 0.8
04/06:30am 10.9 7.4 8.7 86 1.1 W 17 24 9 13 1029.9 1029.9 0.8
04/06:00am 10.5 6.9 8.3 86 1.1 WNW 17 22 9 12 1029.8 1029.8 0.8
04/05:30am 11.1 7.0 8.0 81 1.5 W 19 32 10 17 1029.7 1029.7 0.8
04/05:00am 11.7 7.1 8.2 79 1.7 WSW 22 28 12 15 1029.6 1029.6 0.8
04/04:30am 11.3 6.9 8.9 85 1.2 WSW 22 28 12 15 1029.7 1029.7 0.8
04/04:00am 11.1 7.0 8.7 85 1.2 W 20 26 11 14 1029.7 1029.7 0.6
04/03:30am 11.2 7.7 8.8 85 1.2 SW 17 26 9 14 1029.5 1029.5 0.6
04/03:00am 11.2 6.4 8.8 85 1.2 WSW 24 33 13 18 1029.5 1029.5 0.6
04/02:30am 11.1 7.1 8.3 83 1.4 WSW 19 32 10 17 1029.5 1029.5 0.6
04/02:00am 10.8 6.9 8.7 87 1.0 WSW 19 26 10 14 1029.7 1029.7 0.6
04/01:30am 11.5 5.9 8.7 83 1.4 SW 28 43 15 23 1029.4 1029.4 0.6
04/01:00am 11.6 6.1 7.5 76 2.0 SSW 26 33 14 18 1029.5 1029.5 0.6
04/12:30am 11.3 6.1 7.2 76 2.0 SSW 24 32 13 17 1029.6 1029.6 0.6
04/12:00am 11.0 5.9 7.5 79 1.7 SW 24 35 13 19 1029.8 1029.8 0.6
 
Date/Time
CST
Temp
°C
App
Temp
°C
Dew
Point
°C
Rel
Hum
%
Delta-T
°C
Wind Press
QNH
hPa
Press
MSL
hPa
Rain since
9am
mm
Dir  Spd
km/h
Gust
km/h
Spd
kts
Gust
kts
03/11:48pm 11.0 4.7 7.3 78 1.8 SW 30 37 16 20 1029.7 1029.7 0.6
03/11:30pm 10.3 7.5 8.4 88 0.9 SW 13 19 7 10 1030.0 1030.0 0.6
03/11:00pm 11.3 6.6 7.8 79 1.7 SW 22 33 12 18 1029.8 1029.8 0.4
03/10:30pm 11.1 4.7 7.0 76 1.9 SW 30 39 16 21 1029.6 1029.6 0.4
03/10:00pm 11.2 4.8 7.1 76 2.0 SW 30 35 16 19 1029.4 1029.4 0.4
03/09:30pm 10.8 5.6 7.1 78 1.8 WSW 24 35 13 19 1029.6 1029.6 0.4
03/09:00pm 10.8 4.1 7.3 79 1.7 SW 32 41 17 22 1029.3 1029.3 0.4
03/08:30pm 10.9 5.0 7.4 79 1.7 SW 28 35 15 19 1029.4 1029.4 0.4
03/08:00pm 10.4 4.8 7.3 81 1.5 SW 26 37 14 20 1029.1 1029.1 0.4
03/07:42pm 11.3 5.4 7.4 77 1.9 SSW 28 52 15 28 1028.7 1028.7 0.4
03/07:30pm 11.1 3.3 6.8 75 2.0 SW 37 50 20 27 1028.7 1028.7 0.4
03/07:00pm 11.7 4.2 4.2 60 3.4 SSW 33 46 18 25 1028.3 1028.3 0.4
03/06:30pm 11.4 4.9 6.5 72 2.3 S 30 43 16 23 1028.1 1028.1 0.4
03/06:00pm 11.7 5.4 5.6 66 2.8 SSW 28 44 15 24 1027.8 1027.8 0.4
03/05:30pm 11.8 3.7 5.2 64 3.0 SSW 37 46 20 25 1027.4 1027.4 0.4
03/05:00pm 11.7 4.7 4.2 60 3.4 SSW 30 44 16 24 1027.0 1027.0 0.4
03/04:30pm 11.8 3.2 4.8 62 3.2 SSW 39 50 21 27 1026.5 1026.5 0.4
03/04:00pm 12.1 4.3 4.8 61 3.3 SW 35 46 19 25 1026.2 1026.2 0.4
03/03:30pm 12.0 3.9 5.4 64 3.0 SW 37 48 20 26 1026.0 1026.0 0.4
03/03:00pm 12.1 4.1 5.9 66 2.9 SW 37 50 20 27 1025.8 1025.8 0.4
03/02:30pm 12.3 3.5 5.7 64 3.1 SW 41 50 22 27 1025.4 1025.4 0.4
03/02:00pm 11.8 3.9 6.3 69 2.6 SSW 37 48 20 26 1025.4 1025.4 0.4
03/01:37pm 11.5 4.2 7.2 75 2.1 SSW 35 56 19 30 1025.3 1025.3 0.4
03/01:30pm 11.7 3.4 6.0 68 2.7 SW 39 54 21 29 1025.3 1025.3 0.4
03/01:00pm 12.0 4.4 5.9 66 2.9 SW 35 44 19 24 1025.2 1025.2 0.4
03/12:32pm 12.2 5.3 6.5 68 2.7 SSW 32 50 17 27 1025.0 1025.0 0.4
03/12:30pm 11.9 5.7 6.0 67 2.8 SSW 28 43 15 23 1025.1 1025.1 0.4
03/12:23pm 11.8 4.3 6.5 70 2.5 SSW 35 54 19 29 1025.2 1025.2 0.4
03/12:00pm 12.4 4.1 6.2 66 2.9 SSW 39 48 21 26 1024.9 1024.9 0.4
03/11:30am 12.2 4.4 6.7 69 2.6 SW 37 48 20 26 1024.5 1024.5 0.4
03/11:00am 12.1 3.3 7.4 73 2.3 SSW 43 52 23 28 1024.2 1024.2 0.4
03/10:30am 11.0 2.8 8.4 84 1.3 SSW 41 54 22 29 1023.9 1023.9 0.4
03/10:00am 11.5 4.9 9.9 90 0.8 SSW 35 57 19 31 1023.4 1023.4 0.2
03/09:32am 11.9 4.8 9.5 85 1.2 SSW 37 57 20 31 1022.8 1022.8 0.2
03/09:30am 11.9 4.4 9.5 85 1.2 SSW 39 57 21 31 1022.8 1022.8 0.2
03/09:00am 12.1 4.0 8.6 79 1.7 SSW 41 57 22 31 1021.8 1021.8 2.8
03/08:41am 12.5 4.1 9.7 83 1.4 SW 44 67 24 36 1021.3 1021.3 2.6
03/08:30am 12.4 4.2 9.6 83 1.4 SW 43 52 23 28 1021.4 1021.4 2.6
03/08:16am 12.0 6.3 9.9 87 1.1 WSW 30 50 16 27 1021.2 1021.2 2.6
03/08:00am 11.0 6.4 9.6 91 0.7 W 24 35 13 19 1021.2 1021.2 2.6
03/07:30am 10.5 6.1 9.1 91 0.7 WNW 22 28 12 15 1020.8 1020.8 2.4
03/07:00am 10.6 5.1 9.2 91 0.7 WNW 28 35 15 19 1020.2 1020.2 1.8
03/06:30am 10.5 5.4 9.1 91 0.7 WNW 26 32 14 17 1019.6 1019.7 1.8
03/06:00am 10.7 4.9 9.3 91 0.7 WNW 30 39 16 21 1019.4 1019.5 1.6
03/05:30am 10.5 5.3 8.9 90 0.8 NW 26 33 14 18 1019.0 1019.1 1.6
03/05:00am 10.7 5.2 9.0 89 0.8 NW 28 35 15 19 1018.9 1019.0 1.6
03/04:30am 10.8 5.2 8.6 86 1.1 WNW 28 39 15 21 1019.3 1019.4 0.8
03/04:00am 10.9 4.4 8.1 83 1.4 WNW 32 39 17 21 1019.1 1019.2 0.4
03/03:30am 10.7 4.6 8.1 84 1.3 NW 30 37 16 20 1019.2 1019.3 0.4
03/03:00am 10.7 5.0 8.3 85 1.2 WNW 28 35 15 19 1019.2 1019.3 0.4
03/02:30am 10.3 4.1 7.9 85 1.2 WNW 30 35 16 19 1019.4 1019.5 0.4
03/02:00am 10.2 4.4 7.8 85 1.2 WNW 28 32 15 17 1019.6 1019.7 0.4
03/01:30am 10.0 4.1 7.6 85 1.1 WNW 28 32 15 17 1019.5 1019.6 0.4
03/01:00am 9.9 4.4 7.5 85 1.1 WNW 26 33 14 18 1019.6 1019.7 0.2
03/12:30am 9.7 4.1 7.1 84 1.2 WNW 26 32 14 17 1019.7 1019.8 0.2
03/12:00am 9.5 3.5 7.1 85 1.1 WNW 28 33 15 18 1019.8 1019.9 0.2
 
Date/Time
CST
Temp
°C
App
Temp
°C
Dew
Point
°C
Rel
Hum
%
Delta-T
°C
Wind Press
QNH
hPa
Press
MSL
hPa
Rain since
9am
mm
Dir  Spd
km/h
Gust
km/h
Spd
kts
Gust
kts
02/11:30pm 9.5 3.8 6.9 84 1.2 WNW 26 30 14 16 1020.1 1020.1 0.2
02/11:00pm 9.5 4.2 6.9 84 1.2 WNW 24 30 13 16 1020.1 1020.1 0.2
02/10:30pm 9.3 4.0 6.6 83 1.3 NW 24 32 13 17 1020.2 1020.2 0.2
02/10:00pm 9.2 3.8 6.5 83 1.3 NW 24 30 13 16 1020.2 1020.2 0.2
02/09:30pm 9.1 4.1 6.4 83 1.2 NW 22 26 12 14 1020.1 1020.1 0.2
02/09:00pm 9.1 4.0 6.2 82 1.3 WNW 22 26 12 14 1020.0 1020.0 0.2
02/08:30pm 9.1 4.4 6.0 81 1.4 NW 20 24 11 13 1020.0 1020.0 0.2
02/08:00pm 9.2 4.1 6.1 81 1.4 WNW 22 26 12 14 1019.7 1019.8 0.2
02/07:30pm 9.0 4.3 5.9 81 1.4 WNW 20 24 11 13 1019.3 1019.4 0.2
02/07:00pm 9.0 4.3 5.9 81 1.4 WNW 20 22 11 12 1019.1 1019.2 0.2
02/06:30pm 9.5 5.0 5.9 78 1.6 WNW 19 24 10 13 1019.1 1019.2 0.2
02/06:00pm 9.7 5.0 6.2 79 1.6 WNW 20 24 11 13 1018.7 1018.8 0.2
02/05:30pm 10.3 5.8 6.3 76 1.9 NW 19 22 10 12 1018.3 1018.4 0.2
02/05:00pm 10.8 6.7 6.4 74 2.1 WNW 17 22 9 12 1018.0 1018.1 0.2
02/04:30pm 11.3 5.1 6.0 70 2.5 WSW 28 41 15 22 1017.9 1018.0 0.2
02/04:00pm 11.9 6.0 5.8 66 2.9 W 26 37 14 20 1017.4 1017.5 0.2
02/03:30pm 11.9 6.6 6.8 71 2.4 W 24 32 13 17 1017.4 1017.5 0.2
02/03:09pm 12.0 5.9 6.5 69 2.6 W 28 48 15 26 1017.3 1017.4 0.2
02/03:00pm 11.8 6.3 5.9 67 2.8 W 24 32 13 17 1017.1 1017.2 0.2
02/02:30pm 11.2 3.0 6.5 73 2.2 W 39 52 21 28 1017.0 1017.1 0.2
02/02:17pm 12.4 5.9 6.5 67 2.8 WSW 30 54 16 29 1016.6 1016.7 0.2
02/02:00pm 12.5 5.3 5.2 61 3.4 W 32 46 17 25 1016.7 1016.8 0.2
02/01:43pm 12.7 6.0 5.4 61 3.4 W 30 48 16 26 1016.5 1016.6 0.2
02/01:30pm 12.6 4.7 6.0 64 3.1 W 37 52 20 28 1016.5 1016.6 0.2
02/01:19pm 12.2 5.9 5.8 65 3.0 W 28 48 15 26 1016.4 1016.5 0.2
02/01:00pm 11.9 7.3 6.4 69 2.6 WNW 20 28 11 15 1016.5 1016.6 0.2
02/12:30pm 11.1 5.0 6.8 75 2.0 W 28 39 15 21 1016.6 1016.7 0.2
02/12:00pm 12.5 5.3 5.9 64 3.1 W 33 44 18 24 1016.3 1016.4 0.0
02/11:30am 11.6 4.4 5.7 67 2.7 W 33 46 18 25 1016.7 1016.8 0.0
02/11:19am 12.3 5.8 6.6 68 2.7 W 30 44 16 24 1016.6 1016.7 0.0
02/11:00am 12.6 6.8 6.2 65 3.0 WNW 26 37 14 20 1016.5 1016.6 0.0
02/10:30am 11.8 6.3 5.9 67 2.8 WNW 24 33 13 18 1016.5 1016.6 0.0
02/10:00am 10.9 4.6 5.7 70 2.4 WNW 28 35 15 19 1016.2 1016.3 0.0
02/09:30am 10.4 4.5 5.6 72 2.2 WNW 26 35 14 19 1015.7 1015.8 0.0
02/09:00am 9.9 3.5 5.1 72 2.2 WNW 28 39 15 21 1015.4 1015.5 9.0
02/08:30am 8.9 2.7 4.5 74 1.9 WNW 26 33 14 18 1014.9 1014.9 9.0
02/08:00am 8.4 3.1 4.8 78 1.6 W 22 30 12 16 1014.6 1014.6 9.0
02/07:30am 8.0 1.4 4.2 77 1.7 WNW 28 33 15 18 1014.2 1014.2 9.0
02/07:00am 7.6 1.3 4.0 78 1.6 WNW 26 30 14 16 1013.8 1013.8 9.0
02/06:30am 7.5 2.4 4.3 80 1.4 WNW 20 24 11 13 1013.6 1013.6 9.0
02/06:00am 8.3 2.5 4.3 76 1.8 W 24 30 13 16 1013.5 1013.5 9.0
02/05:30am 8.1 1.9 4.5 78 1.6 WNW 26 32 14 17 1012.8 1012.8 9.0
02/05:00am 8.8 3.1 5.0 77 1.7 WNW 24 33 13 18 1012.5 1012.5 9.0
02/04:30am 8.3 2.6 5.1 80 1.4 WNW 24 26 13 14 1012.4 1012.4 9.0
02/04:00am 8.9 3.2 5.1 77 1.7 W 24 33 13 18 1012.1 1012.1 9.0
02/03:30am 8.4 2.3 5.0 79 1.5 WNW 26 33 14 18 1012.0 1012.0 9.0
02/03:00am 8.0 2.3 5.1 82 1.3 NW 24 30 13 16 1011.9 1011.9 9.0
02/02:30am 8.3 3.1 5.4 82 1.3 WNW 22 28 12 15 1011.8 1011.8 9.0
02/02:00am 8.5 2.9 5.4 81 1.4 WNW 24 33 13 18 1011.4 1011.4 9.0
02/01:30am 8.9 2.2 5.5 79 1.5 WNW 30 43 16 23 1011.2 1011.2 9.0
02/01:00am 9.0 2.6 5.4 78 1.6 WNW 28 35 15 19 1010.6 1010.6 9.0
02/12:30am 9.0 2.3 5.4 78 1.6 WNW 30 35 16 19 1010.2 1010.2 9.0
02/12:00am 9.3 2.2 5.5 77 1.7 WNW 32 39 17 21 1010.1 1010.1 9.0
 
Date/Time
CST
Temp
°C
App
Temp
°C
Dew
Point
°C
Rel
Hum
%
Delta-T
°C
Wind Press
QNH
hPa
Press
MSL
hPa
Rain since
9am
mm
Dir  Spd
km/h
Gust
km/h
Spd
kts
Gust
kts
01/11:30pm 9.6 3.1 6.3 80 1.5 W 30 39 16 21 1009.7 1009.7 9.0
01/11:00pm 9.7 4.4 6.6 81 1.5 WNW 24 35 13 19 1009.6 1009.6 9.0
01/10:30pm 9.7 4.0 6.8 82 1.4 W 26 32 14 17 1009.0 1009.0 9.0
01/10:00pm 9.8 3.7 6.7 81 1.5 WNW 28 39 15 21 1008.2 1008.2 9.0
01/09:30pm 10.1 3.3 6.8 80 1.6 WNW 32 48 17 26 1007.9 1007.9 9.0
01/09:00pm 10.0 5.6 7.4 84 1.2 WNW 20 26 11 14 1007.6 1007.6 9.0
01/08:30pm 10.5 4.2 7.4 81 1.5 WNW 30 39 16 21 1007.4 1007.4 9.0
01/08:00pm 10.3 4.1 7.7 84 1.3 WNW 30 39 16 21 1006.9 1006.9 9.0
01/07:31pm 10.3 3.8 8.1 86 1.1 NW 32 50 17 27 1006.9 1006.9 9.0
01/07:30pm 10.3 3.8 8.1 86 1.1 NW 32 39 17 21 1006.9 1006.9 9.0
01/07:14pm 9.8 3.9 7.7 87 1.0 W 28 43 15 23 1007.0 1007.0 8.6
01/07:00pm 11.0 6.9 8.6 85 1.2 WNW 20 26 11 14 1006.9 1006.9 5.0
01/06:30pm 10.6 5.5 7.8 83 1.4 NW 24 32 13 17 1005.9 1005.9 5.0
01/06:00pm 10.7 5.8 8.6 87 1.0 NNW 24 43 13 23 1005.8 1005.8 5.0
01/05:30pm 10.7 6.1 8.3 85 1.2 NW 22 30 12 16 1006.5 1006.5 3.6
01/05:00pm 10.5 4.7 7.9 84 1.3 NW 28 39 15 21 1005.1 1005.1 2.8
01/04:30pm 10.3 4.9 8.2 87 1.0 W 26 35 14 19 1005.1 1005.1 2.6
01/04:00pm 10.6 3.1 8.0 84 1.3 W 37 57 20 31 1004.8 1004.8 1.4
01/03:38pm 11.9 4.5 9.8 87 1.1 WSW 39 61 21 33 1004.7 1004.7 0.8

Other formats

Comma delimited format used in spreadsheet applications
http://www.bom.gov.au/fwo/IDS60801/IDS60801.94822.axf

JavaScript Object Notation format (JSON) in row-major order
http://www.bom.gov.au/fwo/IDS60801/IDS60801.94822.json

Data quality

Most of these data are generated automatically and are frequently updated. Quality checks on data are not normally performed. It is possible for incorrect values to appear. Refer to information at About Latest Weather Observations and please check the disclaimer before using these data.